Time;durP1;ratioP1;P1;durP2;ratioP2;P2;SDS_P1;SDS_P2;PMS_P1;PMS_P2;Temp;Humidity;BMP_temperature;BMP_pressure;BME280_temperature;BME280_humidity;BME280_pressure;Samples;Min_cycle;Max_cycle;Signal;HPM_P1;HPM_P2
2023/09/10 00:00:30;;;;;;;10.07;6.40;;;18.60;99.90;;;;;;4981011;28;20199;-82
2023/09/10 00:02:56;;;;;;;7.43;6.63;;;18.70;99.90;;;;;;4983019;28;20203;-86
2023/09/10 00:05:21;;;;;;;9.27;6.00;;;18.70;99.90;;;;;;4989708;28;20227;-82
2023/09/10 00:07:47;;;;;;;10.03;6.33;;;18.70;99.90;;;;;;4989829;28;20214;-85
2023/09/10 00:10:13;;;;;;;16.60;7.30;;;18.60;99.90;;;;;;4989930;28;20876;-82
2023/09/10 00:12:40;;;;;;;11.87;6.70;;;18.60;99.90;;;;;;4992543;28;20730;-81
2023/09/10 00:15:06;;;;;;;9.20;6.10;;;18.60;99.90;;;;;;4990466;28;20449;-87
2023/09/10 00:17:32;;;;;;;9.60;6.80;;;18.60;99.90;;;;;;4997421;28;20456;-85
2023/09/10 00:19:57;;;;;;;8.53;6.27;;;18.70;99.90;;;;;;5005482;28;20450;-76
2023/09/10 00:22:23;;;;;;;8.70;7.50;;;19.80;99.90;;;;;;4996363;28;20210;-85
2023/09/10 00:24:48;;;;;;;6.50;5.87;;;18.70;99.90;;;;;;4991956;28;20195;-85
2023/09/10 00:27:14;;;;;;;7.93;6.30;;;18.70;99.90;;;;;;4992524;28;20199;-81
2023/09/10 00:29:40;;;;;;;10.20;7.30;;;18.60;99.90;;;;;;4992000;28;20257;-83
2023/09/10 00:32:05;;;;;;;8.60;6.50;;;18.50;99.90;;;;;;4983686;28;21860;-84
2023/09/10 00:34:32;;;;;;;8.33;6.33;;;18.50;99.90;;;;;;4983651;28;20996;-80
2023/09/10 00:36:59;;;;;;;9.47;7.10;;;18.50;99.90;;;;;;4983316;28;20191;-82
2023/09/10 00:39:25;;;;;;;12.37;7.40;;;18.30;99.90;;;;;;4982831;28;20493;-78
2023/09/10 00:41:54;;;;;;;8.67;6.60;;;18.20;99.90;;;;;;4973106;28;20438;-81
2023/09/10 00:44:20;;;;;;;8.10;6.60;;;18.10;99.90;;;;;;4979485;28;20258;-81
2023/09/10 00:46:47;;;;;;;7.80;6.47;;;18.00;99.90;;;;;;4975755;28;20445;-78
2023/09/10 00:49:12;;;;;;;7.53;6.77;;;18.00;99.90;;;;;;4980463;28;20475;-83
2023/09/10 00:51:39;;;;;;;7.87;6.70;;;18.00;99.90;;;;;;4978420;28;20493;-81
2023/09/10 00:54:05;;;;;;;15.50;7.90;;;18.10;99.90;;;;;;4978496;28;20192;-84
2023/09/10 00:56:30;;;;;;;14.93;9.80;;;18.10;99.90;;;;;;4975940;28;20446;-82
2023/09/10 00:58:56;;;;;;;10.50;8.50;;;18.00;99.90;;;;;;4979068;28;20484;-81
2023/09/10 01:01:22;;;;;;;12.20;8.40;;;17.90;99.90;;;;;;4992284;28;20237;-81
2023/09/10 01:03:48;;;;;;;15.77;8.97;;;17.90;99.90;;;;;;4983338;28;20191;-87
2023/09/10 01:06:14;;;;;;;9.57;7.90;;;17.90;99.90;;;;;;4979336;28;21806;-78
2023/09/10 01:08:39;;;;;;;10.20;8.57;;;18.00;99.90;;;;;;4981043;28;20238;-83
2023/09/10 01:11:12;;;;;;;13.40;8.60;;;18.00;99.90;;;;;;4986032;28;20458;-77
2023/09/10 01:14:06;;;;;;;9.23;8.20;;;18.10;99.90;;;;;;4983366;28;20294;-81
2023/09/10 01:16:43;;;;;;;10.70;8.07;;;18.10;99.90;;;;;;4990508;28;20440;-84
2023/09/10 01:19:43;;;;;;;11.83;8.60;;;17.90;99.90;;;;;;4985893;28;20544;-81
2023/09/10 01:22:30;;;;;;;10.73;8.00;;;17.70;99.90;;;;;;4980594;28;20453;-80
2023/09/10 01:24:57;;;;;;;10.60;7.40;;;17.70;99.90;;;;;;4976145;28;20473;-83
2023/09/10 01:27:22;;;;;;;10.53;7.13;;;17.60;99.90;;;;;;4976817;28;20446;-82
2023/09/10 01:29:48;;;;;;;9.23;8.07;;;17.50;99.90;;;;;;4976491;28;21169;-78
2023/09/10 01:32:57;;;;;;;11.27;8.37;;;17.60;99.90;;;;;;4970556;28;20727;-84
2023/09/10 01:35:35;;;;;;;10.63;7.50;;;17.50;99.90;;;;;;4949619;28;20195;-82
2023/09/10 01:38:26;;;;;;;7.80;7.03;;;17.50;99.90;;;;;;4995242;28;20452;-83
2023/09/10 01:41:08;;;;;;;9.90;7.93;;;17.60;99.90;;;;;;4994776;28;20445;-83
2023/09/10 01:43:34;;;;;;;9.03;7.30;;;17.50;99.90;;;;;;4994842;28;20448;-80
2023/09/10 01:46:03;;;;;;;8.50;7.23;;;17.50;99.90;;;;;;4977511;28;20510;-79
2023/09/10 01:48:29;;;;;;;10.50;7.40;;;17.50;99.90;;;;;;4978368;28;20207;-79
2023/09/10 01:50:55;;;;;;;12.83;7.50;;;17.50;99.90;;;;;;4978257;28;20450;-80
2023/09/10 01:53:20;;;;;;;8.80;6.27;;;17.60;99.90;;;;;;4975492;28;20450;-85
2023/09/10 01:55:46;;;;;;;10.80;7.13;;;17.60;99.90;;;;;;4978445;28;20198;-81
2023/09/10 01:58:13;;;;;;;9.20;6.97;;;17.60;99.90;;;;;;4992017;28;20199;-84
2023/09/10 02:00:39;;;;;;;14.33;7.87;;;17.50;99.90;;;;;;4983044;28;20293;-78
2023/09/10 02:03:04;;;;;;;10.13;7.57;;;17.50;99.90;;;;;;4980672;28;20499;-83
2023/09/10 02:05:30;;;;;;;9.27;7.77;;;17.50;99.90;;;;;;4974158;28;20847;-82
2023/09/10 02:07:56;;;;;;;12.10;7.40;;;17.50;99.90;;;;;;4978244;28;20198;-82
2023/09/10 02:10:22;;;;;;;8.67;7.10;;;17.50;99.90;;;;;;4972950;28;20759;-82
2023/09/10 02:12:47;;;;;;;10.07;7.50;;;17.50;99.90;;;;;;4978462;28;21273;-79
2023/09/10 02:15:13;;;;;;;10.23;7.80;;;17.50;99.90;;;;;;4976582;28;20278;-80
2023/09/10 02:17:39;;;;;;;10.53;6.97;;;17.50;99.90;;;;;;4990455;28;20207;-83
2023/09/10 02:20:09;;;;;;;10.33;7.33;;;17.40;99.90;;;;;;4983111;28;20515;-79
2023/09/10 02:22:36;;;;;;;11.40;7.37;;;17.30;99.90;;;;;;4975577;28;20183;-78
2023/09/10 02:25:03;;;;;;;17.07;8.00;;;17.10;99.90;;;;;;4971589;28;20469;-82
2023/09/10 02:27:29;;;;;;;12.50;8.30;;;16.90;99.90;;;;;;5010355;28;20462;-84
2023/09/10 02:29:55;;;;;;;9.33;8.30;;;16.80;99.90;;;;;;4977246;28;20469;-83
2023/09/10 02:32:20;;;;;;;9.40;8.40;;;16.80;99.90;;;;;;4978114;28;20446;-82
2023/09/10 02:34:46;;;;;;;9.97;7.97;;;16.80;99.90;;;;;;4977768;28;20183;-77
2023/09/10 02:37:14;;;;;;;11.30;7.90;;;16.80;99.90;;;;;;4973783;28;20187;-84
2023/09/10 02:39:39;;;;;;;10.00;7.50;;;16.90;99.90;;;;;;4987687;28;20207;-77
2023/09/10 02:42:05;;;;;;;11.43;7.73;;;16.90;99.90;;;;;;4981862;28;20577;-83
2023/09/10 02:44:30;;;;;;;10.30;7.97;;;16.90;99.90;;;;;;4979445;28;20215;-85
2023/09/10 02:46:56;;;;;;;9.57;8.10;;;16.90;99.90;;;;;;4978763;28;20211;-84
2023/09/10 02:49:21;;;;;;;11.10;8.90;;;16.90;99.90;;;;;;4970865;28;20218;-79
2023/09/10 02:51:48;;;;;;;12.80;9.10;;;16.90;99.90;;;;;;4978378;28;20226;-78
2023/09/10 02:54:15;;;;;;;12.87;8.70;;;16.90;99.90;;;;;;4977940;28;20199;-82
2023/09/10 02:56:40;;;;;;;12.80;8.63;;;16.80;99.90;;;;;;4977783;28;20544;-82
2023/09/10 02:59:06;;;;;;;12.53;9.03;;;16.80;99.90;;;;;;4976657;28;20588;-83
2023/09/10 03:01:31;;;;;;;13.57;8.27;;;16.80;99.90;;;;;;4979549;28;20777;-77
2023/09/10 03:03:57;;;;;;;11.83;9.13;;;16.80;99.90;;;;;;4984092;28;20194;-79
2023/09/10 03:06:22;;;;;;;12.00;9.30;;;16.80;99.90;;;;;;4978426;28;23662;-87
2023/09/10 03:08:48;;;;;;;11.10;8.23;;;16.60;99.90;;;;;;4975104;28;20238;-81
2023/09/10 03:11:14;;;;;;;12.37;8.50;;;16.70;99.90;;;;;;4966499;28;20180;-83
2023/09/10 03:13:39;;;;;;;13.37;8.80;;;16.60;99.90;;;;;;4977312;28;20495;-83
2023/09/10 03:16:05;;;;;;;11.00;8.27;;;16.60;99.90;;;;;;4973034;28;20588;-84
2023/09/10 03:18:30;;;;;;;16.73;7.67;;;16.60;99.90;;;;;;4971349;28;20183;-83
2023/09/10 03:20:56;;;;;;;11.13;8.53;;;16.60;99.90;;;;;;4989959;28;20187;-81
2023/09/10 03:23:22;;;;;;;12.90;9.00;;;16.50;99.90;;;;;;4988799;28;20233;-79
2023/09/10 03:25:47;;;;;;;9.43;8.33;;;16.30;99.90;;;;;;4965300;28;20221;-84
2023/09/10 03:28:13;;;;;;;15.07;8.40;;;16.20;99.90;;;;;;4969847;28;20237;-82
2023/09/10 03:30:38;;;;;;;13.67;9.17;;;16.10;99.90;;;;;;4973948;28;20215;-84
2023/09/10 03:33:04;;;;;;;11.63;7.53;;;16.00;99.90;;;;;;4974412;28;20245;-83
2023/09/10 03:35:29;;;;;;;12.20;8.77;;;15.90;99.90;;;;;;4979681;28;20198;-77
2023/09/10 03:37:55;;;;;;;10.17;8.80;;;15.90;99.90;;;;;;4983630;28;20200;-79
2023/09/10 03:40:20;;;;;;;13.87;10.03;;;15.80;99.90;;;;;;4998540;28;20210;-81
2023/09/10 03:42:46;;;;;;;13.43;9.17;;;15.90;99.90;;;;;;4982909;28;20191;-82
2023/09/10 03:45:11;;;;;;;12.00;9.23;;;15.90;99.90;;;;;;4996499;28;20219;-79
2023/09/10 03:47:37;;;;;;;11.07;9.87;;;15.80;99.90;;;;;;4978213;28;20191;-84
2023/09/10 03:50:03;;;;;;;11.73;8.97;;;15.80;99.90;;;;;;4979212;28;20269;-87
2023/09/10 03:52:28;;;;;;;13.50;9.10;;;15.80;99.90;;;;;;4983819;28;20194;-87
2023/09/10 03:54:54;;;;;;;11.90;7.57;;;15.80;99.90;;;;;;4992344;28;20183;-84
2023/09/10 03:57:19;;;;;;;16.93;9.73;;;15.80;99.90;;;;;;4978949;28;20183;-81
2023/09/10 03:59:45;;;;;;;15.50;10.50;;;15.80;99.90;;;;;;4983914;28;20716;-81
2023/09/10 04:02:14;;;;;;;10.67;8.43;;;15.90;99.90;;;;;;4981475;28;20215;-79
2023/09/10 04:04:41;;;;;;;19.23;8.93;;;16.00;99.90;;;;;;4980469;28;20214;-83
2023/09/10 04:07:06;;;;;;;11.87;9.33;;;16.00;99.90;;;;;;4973442;28;20539;-78
2023/09/10 04:09:32;;;;;;;10.50;8.70;;;16.10;99.90;;;;;;5000061;28;20516;-86
2023/09/10 04:11:57;;;;;;;16.03;10.00;;;16.10;99.90;;;;;;4979769;28;20563;-80
2023/09/10 04:14:23;;;;;;;15.77;10.87;;;16.10;99.90;;;;;;4979660;28;20313;-81
2023/09/10 04:16:49;;;;;;;12.77;8.90;;;16.10;99.90;;;;;;4982944;28;20183;-82
2023/09/10 04:19:15;;;;;;;13.80;10.27;;;16.10;99.90;;;;;;4988250;28;20509;-85
2023/09/10 04:21:40;;;;;;;11.83;10.43;;;16.00;99.90;;;;;;4975099;28;20191;-80
2023/09/10 04:24:06;;;;;;;15.50;10.93;;;16.00;99.90;;;;;;4980140;28;20202;-80
2023/09/10 04:26:31;;;;;;;13.50;9.87;;;15.90;99.90;;;;;;4974498;28;20338;-81
2023/09/10 04:28:58;;;;;;;13.10;10.20;;;16.00;99.90;;;;;;4978305;28;20216;-82
2023/09/10 04:31:23;;;;;;;13.47;10.53;;;15.90;99.90;;;;;;4984779;28;20453;-83
2023/09/10 04:33:49;;;;;;;11.37;9.50;;;16.00;99.90;;;;;;4970716;28;20842;-85
2023/09/10 04:36:14;;;;;;;12.00;8.50;;;15.90;99.90;;;;;;4975978;28;20334;-82
2023/09/10 04:38:40;;;;;;;17.07;8.80;;;15.90;99.90;;;;;;4977172;28;20301;-84
2023/09/10 04:41:06;;;;;;;12.90;10.47;;;15.70;99.90;;;;;;4975413;28;20187;-79
2023/09/10 04:43:31;;;;;;;13.40;10.33;;;15.60;99.90;;;;;;4981356;28;20199;-87
2023/09/10 04:45:57;;;;;;;15.30;10.77;;;15.60;99.90;;;;;;4975371;28;20337;-83
2023/09/10 04:48:22;;;;;;;12.63;10.00;;;15.60;99.90;;;;;;4980361;28;20191;-80
2023/09/10 04:50:48;;;;;;;14.70;10.80;;;15.70;99.90;;;;;;4981849;28;20309;-84
2023/09/10 04:53:14;;;;;;;13.33;9.40;;;15.70;99.90;;;;;;4994835;28;20692;-81
2023/09/10 04:55:40;;;;;;;13.70;9.60;;;15.60;99.90;;;;;;4996015;28;20203;-79
2023/09/10 04:58:05;;;;;;;13.90;9.53;;;15.50;99.90;;;;;;4984383;28;20457;-87
2023/09/10 05:00:31;;;;;;;16.80;10.50;;;15.30;99.90;;;;;;4978048;28;20765;-82
2023/09/10 05:02:57;;;;;;;14.17;11.30;;;15.40;99.90;;;;;;4978988;28;21368;-79
2023/09/10 05:05:22;;;;;;;12.47;10.60;;;15.30;99.90;;;;;;4973863;28;21116;-83
2023/09/10 05:07:49;;;;;;;16.20;10.30;;;15.30;99.90;;;;;;4977180;28;20187;-81
2023/09/10 05:10:14;;;;;;;21.90;10.90;;;15.40;99.90;;;;;;4974955;28;20300;-86
2023/09/10 05:12:40;;;;;;;16.47;10.00;;;15.50;99.90;;;;;;4978804;28;20430;-83
2023/09/10 05:15:06;;;;;;;13.93;10.33;;;15.60;99.90;;;;;;4983998;28;20229;-81
2023/09/10 05:17:32;;;;;;;13.87;10.37;;;15.80;99.90;;;;;;4982267;28;20199;-84
2023/09/10 05:19:57;;;;;;;12.50;9.90;;;16.00;99.90;;;;;;4965719;28;20462;-84
2023/09/10 05:22:23;;;;;;;14.17;10.60;;;16.60;99.90;;;;;;4979418;28;20194;-84
2023/09/10 05:24:48;;;;;;;12.00;9.13;;;17.20;99.90;;;;;;4978142;28;20207;-80
2023/09/10 05:27:14;;;;;;;10.80;9.20;;;17.90;99.90;;;;;;4974522;28;20199;-82
2023/09/10 05:29:39;;;;;;;14.80;10.57;;;18.50;99.90;;;;;;4975809;28;20215;-80
2023/09/10 05:32:05;;;;;;;12.27;9.83;;;19.30;99.90;;;;;;4976053;28;20219;-86
2023/09/10 05:34:30;;;;;;;13.20;10.00;;;20.30;99.90;;;;;;4977556;28;20202;-84
2023/09/10 05:36:56;;;;;;;11.83;9.03;;;21.60;99.90;;;;;;4986619;28;20209;-84
2023/09/10 05:39:21;;;;;;;12.27;9.83;;;23.10;99.90;;;;;;4996659;28;20211;-82
2023/09/10 05:41:47;;;;;;;12.77;8.47;;;24.40;99.90;;;;;;4978705;28;21119;-87
2023/09/10 05:44:12;;;;;;;12.20;8.83;;;25.50;99.90;;;;;;4973508;28;20259;-83
2023/09/10 05:46:38;;;;;;;12.30;7.50;;;26.60;99.90;;;;;;4981499;28;20186;-84
2023/09/10 05:49:04;;;;;;;10.17;8.07;;;27.60;99.90;;;;;;4981408;28;20243;-86
2023/09/10 05:51:29;;;;;;;9.27;8.30;;;28.70;99.90;;;;;;4971994;28;20268;-84
2023/09/10 05:53:55;;;;;;;15.07;9.73;;;29.70;99.90;;;;;;4975828;28;20186;-83
2023/09/10 05:56:21;;;;;;;11.77;9.00;;;30.70;99.90;;;;;;4977339;28;21247;-82
2023/09/10 05:58:46;;;;;;;9.90;8.90;;;31.60;99.90;;;;;;4995398;28;20247;-85
2023/09/10 06:01:12;;;;;;;12.60;10.57;;;32.20;96.70;;;;;;4982587;28;21116;-83
2023/09/10 06:03:37;;;;;;;11.23;9.87;;;32.70;93.40;;;;;;4980724;28;20213;-85
2023/09/10 06:06:03;;;;;;;10.37;8.60;;;32.90;91.50;;;;;;4977400;28;20330;-87
2023/09/10 06:08:32;;;;;;;13.23;9.53;;;32.70;90.10;;;;;;5000467;28;20414;-78
2023/09/10 06:10:57;;;;;;;12.50;10.03;;;33.20;90.10;;;;;;4988683;28;20278;-80
2023/09/10 06:13:23;;;;;;;11.10;9.77;;;34.30;87.10;;;;;;4982893;28;20570;-89
2023/09/10 06:15:49;;;;;;;10.13;9.17;;;34.90;81.30;;;;;;4980704;28;20613;-88
2023/09/10 06:18:14;;;;;;;10.37;9.27;;;35.00;76.30;;;;;;4982204;28;20198;-83
2023/09/10 06:20:48;;;;;;;14.00;10.50;;;34.40;75.40;;;;;;5087539;27;20581;-82
2023/09/10 06:23:14;;;;;;;11.43;10.23;;;33.20;77.20;;;;;;5068938;28;20449;-81
2023/09/10 06:25:40;;;;;;;11.13;9.90;;;33.00;77.90;;;;;;5065354;28;20185;-83
2023/09/10 06:28:06;;;;;;;13.07;10.77;;;33.20;78.30;;;;;;5068529;28;20853;-84
2023/09/10 06:30:32;;;;;;;14.10;10.47;;;33.40;77.10;;;;;;5074553;28;20736;-87
2023/09/10 06:32:57;;;;;;;12.97;11.50;;;34.70;77.50;;;;;;5074639;28;20439;-82
2023/09/10 06:35:23;;;;;;;13.53;12.23;;;36.20;71.70;;;;;;5067821;28;20217;-83
2023/09/10 06:37:49;;;;;;;14.10;11.83;;;35.90;69.10;;;;;;5071041;28;20205;-83
2023/09/10 06:40:15;;;;;;;17.60;13.70;;;35.50;69.90;;;;;;5074542;28;20206;-86
2023/09/10 06:42:41;;;;;;;14.63;13.00;;;35.20;69.70;;;;;;5067254;28;20450;-84
2023/09/10 06:45:06;;;;;;;13.07;11.77;;;35.60;70.30;;;;;;5071849;28;20187;-84
2023/09/10 06:47:32;;;;;;;13.77;12.37;;;35.70;68.90;;;;;;5072700;28;20672;-84
2023/09/10 06:49:57;;;;;;;16.80;13.13;;;35.40;66.90;;;;;;5072718;28;21217;-80
2023/09/10 06:52:23;;;;;;;13.87;12.47;;;35.10;68.20;;;;;;5072536;28;20195;-83
2023/09/10 06:54:48;;;;;;;14.10;12.77;;;34.70;68.80;;;;;;5073690;28;20190;-83
2023/09/10 06:57:14;;;;;;;15.87;14.17;;;34.20;72.00;;;;;;5074243;28;20185;-83
2023/09/10 06:59:39;;;;;;;14.80;12.77;;;34.10;71.70;;;;;;5073375;28;20224;-85
2023/09/10 07:02:06;;;;;;;14.70;12.50;;;34.40;72.80;;;;;;5075514;28;20268;-85
2023/09/10 07:04:32;;;;;;;18.20;14.57;;;34.40;71.10;;;;;;5083608;28;20193;-82
2023/09/10 07:06:57;;;;;;;12.97;11.73;;;34.00;72.10;;;;;;5068384;28;20448;-81
2023/09/10 07:09:23;;;;;;;13.83;12.40;;;34.60;73.30;;;;;;5071868;28;20552;-79
2023/09/10 07:11:50;;;;;;;14.37;12.40;;;35.80;70.40;;;;;;5066471;28;20185;-83
2023/09/10 07:14:17;;;;;;;15.27;13.77;;;36.10;69.80;;;;;;5075724;28;20442;-84
2023/09/10 07:16:42;;;;;;;15.40;13.77;;;37.10;67.50;;;;;;5073352;28;20443;-82
2023/09/10 07:19:08;;;;;;;16.57;14.73;;;;;;;;;;5081607;28;20479;-79
2023/09/10 07:21:34;;;;;;;15.60;14.10;;;37.20;64.50;;;;;;5084157;28;20228;-80
2023/09/10 07:23:59;;;;;;;17.43;15.73;;;36.90;64.40;;;;;;5093955;28;20448;-84
2023/09/10 07:26:25;;;;;;;17.27;14.80;;;36.20;65.30;;;;;;5076053;28;20217;-83
2023/09/10 07:28:50;;;;;;;24.07;15.27;;;36.30;67.50;;;;;;5071153;28;20285;-84
2023/09/10 07:31:16;;;;;;;20.90;15.47;;;37.70;65.40;;;;;;5066081;28;20637;-83
2023/09/10 07:33:41;;;;;;;19.80;16.80;;;38.40;62.40;;;;;;5060217;28;20195;-83
2023/09/10 07:36:07;;;;;;;17.37;15.57;;;37.80;61.20;;;;;;5057280;28;20205;-85
2023/09/10 07:38:33;;;;;;;16.80;15.10;;;38.20;61.20;;;;;;5059467;28;20241;-79
2023/09/10 07:40:58;;;;;;;17.47;15.77;;;38.50;60.70;;;;;;5054141;28;20490;-84
2023/09/10 07:43:24;;;;;;;23.53;15.63;;;39.20;59.40;;;;;;5054962;28;20188;-81
2023/09/10 07:45:50;;;;;;;18.13;16.43;;;39.40;57.90;;;;;;5060248;28;20184;-84
2023/09/10 07:48:15;;;;;;;17.30;15.70;;;39.10;58.40;;;;;;5062807;28;20217;-84
2023/09/10 07:51:02;;;;;;;20.07;15.70;;;39.80;56.80;;;;;;5061004;28;20204;-82
2023/09/10 07:53:28;;;;;;;18.93;17.07;;;40.80;56.30;;;;;;5057789;28;20862;-86
2023/09/10 07:55:54;;;;;;;18.63;16.80;;;39.30;56.70;;;;;;5054479;28;20445;-86
2023/09/10 07:58:19;;;;;;;17.43;15.93;;;37.50;57.60;;;;;;5052098;28;20193;-86
2023/09/10 08:00:45;;;;;;;19.17;15.23;;;36.30;60.70;;;;;;5058599;28;20222;-84
2023/09/10 08:03:12;;;;;;;17.17;15.37;;;37.30;62.40;;;;;;5066705;28;20200;-81
2023/09/10 08:05:38;;;;;;;16.17;14.50;;;37.00;61.50;;;;;;5054867;28;20360;-88
2023/09/10 08:08:03;;;;;;;16.40;14.70;;;35.80;64.90;;;;;;5050450;28;20528;-80
2023/09/10 08:10:30;;;;;;;17.23;15.40;;;36.70;65.40;;;;;;5070367;28;20230;-82
2023/09/10 08:12:55;;;;;;;16.67;15.00;;;37.90;61.20;;;;;;5070819;28;20465;-84
2023/09/10 08:15:21;;;;;;;16.43;14.87;;;37.60;61.00;;;;;;5070531;28;20431;-81
2023/09/10 08:17:49;;;;;;;19.13;15.57;;;37.40;60.50;;;;;;5062918;28;20857;-85
2023/09/10 08:20:15;;;;;;;17.93;15.13;;;38.60;59.60;;;;;;5054583;28;20250;-82
2023/09/10 08:22:41;;;;;;;18.50;15.00;;;;;;;;;;5057367;28;20464;-83
2023/09/10 08:25:08;;;;;;;15.27;13.87;;;36.60;63.10;;;;;;5057523;28;20670;-87
2023/09/10 08:27:35;;;;;;;17.00;15.33;;;37.40;61.10;;;;;;5051395;28;20446;-82
2023/09/10 08:30:05;;;;;;;17.90;15.80;;;37.70;59.40;;;;;;5056387;28;20450;-85
2023/09/10 08:32:35;;;;;;;17.90;16.40;;;38.10;59.90;;;;;;5057677;28;20979;-89
2023/09/10 08:35:01;;;;;;;17.07;15.43;;;37.80;58.70;;;;;;5064239;28;20461;-82
2023/09/10 08:37:27;;;;;;;18.13;16.53;;;37.60;59.60;;;;;;5055382;28;21030;-85
2023/09/10 08:39:54;;;;;;;17.03;14.93;;;37.40;59.30;;;;;;5054140;28;20568;-80
2023/09/10 08:42:32;;;;;;;17.70;16.20;;;38.20;60.00;;;;;;5051816;28;20943;-81
2023/09/10 08:45:01;;;;;;;18.33;16.73;;;38.40;58.40;;;;;;5053995;28;20438;-84
2023/09/10 08:47:31;;;;;;;17.70;14.33;;;38.10;56.60;;;;;;5049307;28;20996;-86
2023/09/10 08:50:05;;;;;;;19.23;17.10;;;38.10;57.10;;;;;;5046350;28;20469;-84
2023/09/10 08:52:32;;;;;;;18.50;16.83;;;38.10;57.80;;;;;;5050066;28;20484;-85
2023/09/10 08:54:58;;;;;;;15.93;14.53;;;38.20;57.30;;;;;;5037611;28;21403;-84
2023/09/10 08:57:24;;;;;;;17.87;16.07;;;38.60;57.90;;;;;;5053791;28;20499;-87
2023/09/10 08:59:51;;;;;;;18.00;16.60;;;38.80;57.20;;;;;;5053802;28;20302;-83
2023/09/10 09:02:17;;;;;;;18.07;16.77;;;40.20;55.60;;;;;;5045464;28;20450;-86
2023/09/10 09:04:43;;;;;;;17.10;15.70;;;39.70;54.70;;;;;;5052089;28;20452;-87
2023/09/10 09:07:12;;;;;;;18.37;16.57;;;40.30;55.80;;;;;;5050974;28;21378;-86
2023/09/10 09:09:41;;;;;;;18.53;16.87;;;40.20;54.60;;;;;;5069527;28;20607;-83
2023/09/10 09:12:09;;;;;;;19.20;17.30;;;39.40;55.00;;;;;;5046794;28;20465;-85
2023/09/10 09:14:42;;;;;;;20.43;16.20;;;39.50;55.20;;;;;;5077810;28;20464;-83
2023/09/10 09:17:12;;;;;;;19.20;17.27;;;40.50;54.30;;;;;;5054122;28;20439;-83
2023/09/10 09:19:38;;;;;;;16.90;15.23;;;;;;;;;;5049202;28;20472;-87
2023/09/10 09:22:07;;;;;;;18.00;16.17;;;40.50;51.60;;;;;;5049195;28;20461;-85
2023/09/10 09:24:33;;;;;;;19.00;17.23;;;39.50;53.10;;;;;;5053397;28;20525;-86
2023/09/10 09:27:00;;;;;;;19.37;17.77;;;38.90;54.10;;;;;;5052038;28;20477;-84
2023/09/10 09:29:30;;;;;;;18.93;17.20;;;37.60;54.50;;;;;;5048972;28;20474;-87
2023/09/10 09:31:56;;;;;;;18.40;16.23;;;37.00;56.80;;;;;;5051376;28;20449;-86
2023/09/10 09:34:21;;;;;;;16.80;15.30;;;35.60;57.50;;;;;;5040031;28;20438;-85
2023/09/10 09:36:53;;;;;;;17.60;15.87;;;35.80;58.40;;;;;;5044734;28;20202;-86
2023/09/10 09:39:20;;;;;;;18.80;17.17;;;36.10;56.80;;;;;;5056174;28;20295;-86
2023/09/10 09:41:53;;;;;;;19.90;17.87;;;35.90;56.90;;;;;;5050032;28;20476;-84
2023/09/10 09:44:19;;;;;;;17.13;15.63;;;36.40;57.30;;;;;;5047974;28;20510;-86
2023/09/10 09:46:45;;;;;;;18.97;16.10;;;36.70;58.50;;;;;;5050611;28;20485;-84
2023/09/10 09:49:11;;;;;;;16.87;15.23;;;36.50;57.20;;;;;;5056245;28;20493;-90
2023/09/10 09:51:39;;;;;;;17.00;15.50;;;36.00;59.10;;;;;;5049564;28;20197;-84
2023/09/10 09:54:07;;;;;;;16.27;14.80;;;35.90;59.00;;;;;;5068820;28;20223;-86
2023/09/10 09:56:32;;;;;;;18.10;16.20;;;36.90;58.00;;;;;;5044900;28;20478;-83
2023/09/10 09:58:59;;;;;;;18.83;16.87;;;38.40;57.10;;;;;;5049482;28;20554;-85
2023/09/10 10:01:25;;;;;;;18.70;16.20;;;39.10;54.20;;;;;;5054412;28;20243;-81
2023/09/10 10:03:52;;;;;;;17.43;15.90;;;38.70;54.40;;;;;;5053565;28;20434;-85
2023/09/10 10:06:19;;;;;;;19.07;17.40;;;38.70;55.20;;;;;;5059110;28;20438;-83
2023/09/10 10:08:51;;;;;;;18.23;16.83;;;38.00;54.10;;;;;;5049125;28;20577;-84
2023/09/10 10:11:29;;;;;;;18.10;16.50;;;35.90;56.90;;;;;;5050066;28;20483;-85
2023/09/10 10:13:59;;;;;;;16.33;14.33;;;33.60;62.20;;;;;;5054649;28;20439;-84
2023/09/10 10:16:28;;;;;;;18.83;14.60;;;32.60;67.30;;;;;;5057023;28;20440;-83
2023/09/10 10:18:54;;;;;;;16.40;14.00;;;32.60;68.90;;;;;;5067011;28;20475;-80
2023/09/10 10:21:21;;;;;;;14.53;13.20;;;32.30;68.70;;;;;;5055545;28;20445;-81
2023/09/10 10:23:47;;;;;;;15.80;12.70;;;31.80;70.20;;;;;;5057504;28;21295;-85
2023/09/10 10:26:16;;;;;;;13.50;12.30;;;31.50;71.50;;;;;;5043241;28;20445;-81
2023/09/10 10:28:44;;;;;;;12.27;11.00;;;31.30;73.10;;;;;;5050921;28;20506;-84
2023/09/10 10:31:16;;;;;;;12.77;11.67;;;31.20;72.60;;;;;;5062877;28;20466;-84
2023/09/10 10:34:15;;;;;;;16.17;11.30;;;31.10;74.00;;;;;;5059199;28;20442;-83
2023/09/10 10:36:53;;;;;;;13.37;12.07;;;30.90;74.50;;;;;;5024421;28;20579;-86
2023/09/10 10:39:34;;;;;;;14.10;11.40;;;30.60;74.60;;;;;;5032684;28;21116;-82
2023/09/10 10:42:00;;;;;;;12.93;11.73;;;30.40;74.80;;;;;;5052872;28;21750;-83
2023/09/10 10:44:33;;;;;;;11.07;10.07;;;30.20;76.30;;;;;;5035111;28;20440;-82
2023/09/10 10:47:10;;;;;;;15.40;10.47;;;30.10;77.40;;;;;;5052907;28;20447;-83
2023/09/10 10:49:42;;;;;;;11.40;10.20;;;30.10;77.80;;;;;;5063789;28;20540;-81
2023/09/10 10:52:10;;;;;;;13.10;10.30;;;30.00;78.60;;;;;;5062066;28;21011;-84
2023/09/10 10:54:38;;;;;;;16.37;10.40;;;29.80;83.80;;;;;;5054588;28;20451;-84
2023/09/10 10:57:06;;;;;;;13.13;9.97;;;29.80;84.00;;;;;;5066094;28;20447;-84
2023/09/10 10:59:32;;;;;;;11.93;10.70;;;30.20;81.60;;;;;;5063475;28;20498;-86
2023/09/10 11:02:21;;;;;;;11.73;10.53;;;30.30;80.60;;;;;;5061654;28;20445;-81
2023/09/10 11:05:13;;;;;;;13.80;10.93;;;29.80;81.00;;;;;;5062076;28;20477;-84
2023/09/10 11:07:38;;;;;;;16.70;10.90;;;29.60;81.60;;;;;;5063114;28;20446;-81
2023/09/10 11:10:27;;;;;;;17.60;10.73;;;29.60;82.20;;;;;;5060497;28;20467;-87
2023/09/10 11:13:06;;;;;;;13.00;10.77;;;29.70;83.70;;;;;;5053949;28;20217;-83
2023/09/10 11:15:31;;;;;;;13.43;10.50;;;30.00;80.10;;;;;;5069635;28;20446;-78
2023/09/10 11:18:49;;;;;;;10.90;9.80;;;30.00;79.90;;;;;;5079582;28;20450;-84
2023/09/10 11:21:16;;;;;;;16.53;10.53;;;30.00;80.00;;;;;;5061344;28;20227;-80
2023/09/10 11:23:57;;;;;;;10.23;8.90;;;30.20;77.10;;;;;;5076776;28;20434;-80
2023/09/10 11:26:22;;;;;;;11.37;9.37;;;30.40;76.30;;;;;;5072970;28;20451;-82
2023/09/10 11:28:50;;;;;;;11.53;10.33;;;30.50;76.40;;;;;;5068940;28;20447;-82
2023/09/10 11:34:27;;;;;;;12.87;9.50;;;30.00;76.30;;;;;;5068418;28;20505;-86
2023/09/10 11:36:55;;;;;;;12.80;8.83;;;30.20;76.30;;;;;;5060143;28;20931;-77
2023/09/10 11:39:21;;;;;;;9.53;8.00;;;30.50;76.20;;;;;;5066402;28;20469;-85
2023/09/10 11:41:49;;;;;;;11.43;9.60;;;30.50;71.80;;;;;;5064611;28;20503;-80
2023/09/10 11:44:14;;;;;;;12.73;9.60;;;30.60;69.70;;;;;;5064198;28;20423;-86
2023/09/10 11:46:40;;;;;;;10.50;9.40;;;30.50;72.80;;;;;;5058752;28;20790;-80
2023/09/10 11:49:06;;;;;;;11.53;9.40;;;30.20;74.90;;;;;;5068926;28;20196;-84
2023/09/10 11:51:32;;;;;;;9.67;8.20;;;29.90;75.70;;;;;;5075167;28;20216;-85
2023/09/10 11:53:58;;;;;;;9.23;8.33;;;29.90;77.10;;;;;;5046457;28;20626;-83
2023/09/10 11:56:25;;;;;;;10.03;8.50;;;29.60;75.20;;;;;;5058578;28;20499;-83
2023/09/10 11:58:52;;;;;;;11.97;8.50;;;29.80;75.80;;;;;;5060685;28;20557;-80
2023/09/10 12:01:17;;;;;;;10.43;9.23;;;29.80;75.00;;;;;;5061256;28;20995;-87
2023/09/10 12:03:44;;;;;;;11.70;8.77;;;29.80;75.20;;;;;;5062404;28;20444;-81
2023/09/10 12:06:11;;;;;;;12.13;8.13;;;29.90;76.70;;;;;;5061614;28;20181;-82
2023/09/10 12:08:37;;;;;;;12.40;8.23;;;30.00;76.00;;;;;;5063128;28;20439;-84
2023/09/10 12:11:08;;;;;;;9.50;8.50;;;30.20;75.40;;;;;;5081072;28;20442;-87
2023/09/10 12:13:35;;;;;;;9.57;8.57;;;30.30;77.00;;;;;;5068808;28;20197;-80
2023/09/10 12:16:02;;;;;;;12.00;8.20;;;30.20;72.90;;;;;;5067371;28;20437;-82
2023/09/10 12:18:28;;;;;;;11.00;8.40;;;30.10;74.40;;;;;;5068816;28;21011;-80
2023/09/10 12:20:56;;;;;;;14.80;9.07;;;30.10;75.00;;;;;;5056984;28;20528;-86
2023/09/10 12:23:22;;;;;;;8.20;7.40;;;30.40;73.70;;;;;;5053234;28;20472;-85
2023/09/10 12:25:58;;;;;;;9.40;8.40;;;30.50;74.30;;;;;;5055732;28;20561;-88
2023/09/10 12:28:25;;;;;;;17.63;9.07;;;30.60;73.90;;;;;;5064487;28;20174;-81
2023/09/10 12:30:51;;;;;;;15.53;8.17;;;30.80;70.00;;;;;;5069709;28;21024;-84
2023/09/10 12:33:20;;;;;;;11.03;8.07;;;30.60;68.80;;;;;;5058578;28;20452;-85
2023/09/10 12:35:46;;;;;;;8.97;8.07;;;30.80;69.40;;;;;;5058139;28;20454;-86
2023/09/10 12:38:17;;;;;;;13.10;8.30;;;31.00;69.30;;;;;;5067387;28;20437;-82
2023/09/10 12:40:45;;;;;;;9.17;7.50;;;31.10;69.60;;;;;;5062915;28;20529;-84